Time;durP1;ratioP1;P1;durP2;ratioP2;P2;SDS_P1;SDS_P2;PMS_P1;PMS_P2;Temp;Humidity;BMP_temperature;BMP_pressure;BME280_temperature;BME280_humidity;BME280_pressure;Samples;Min_cycle;Max_cycle;Signal;HPM_P1;HPM_P2
2022/07/07 00:00:49;;;;;;;0.60;0.60;;;;;;;;;;5078068;28;20258;-82
2022/07/07 00:03:17;;;;;;;0.80;0.80;;;;;;;;;;5077868;28;20233;-82
2022/07/07 00:05:44;;;;;;;0.70;0.70;;;;;;;;;;5077323;28;20260;-82
2022/07/07 00:08:11;;;;;;;1.73;0.98;;;;;;;;;;5078030;28;20205;-83
2022/07/07 00:10:39;;;;;;;0.93;0.93;;;;;;;;;;5077936;28;20200;-82
2022/07/07 00:13:08;;;;;;;0.73;0.73;;;;;;;;;;5077809;28;20240;-82
2022/07/07 00:15:35;;;;;;;0.82;0.82;;;;;;;;;;5077012;28;20224;-81
2022/07/07 00:18:03;;;;;;;0.70;0.70;;;;;;;;;;5078113;28;20236;-82
2022/07/07 00:20:31;;;;;;;0.90;0.90;;;;;;;;;;5077599;28;20235;-83
2022/07/07 00:22:59;;;;;;;0.80;0.80;;;;;;;;;;5077487;28;20232;-82
2022/07/07 00:25:26;;;;;;;0.65;0.65;;;;;;;;;;5077316;28;20255;-82
2022/07/07 00:27:54;;;;;;;0.80;0.80;;;;;;;;;;5077776;28;20236;-81
2022/07/07 00:30:23;;;;;;;0.80;0.80;;;;;;;;;;5077584;28;20211;-82
2022/07/07 00:32:50;;;;;;;1.35;1.25;;;;;;;;;;5077390;28;20255;-82
2022/07/07 00:35:18;;;;;;;0.85;0.85;;;;;;;;;;5077356;28;20308;-82
2022/07/07 00:37:45;;;;;;;0.90;0.90;;;;;;;;;;5077748;28;20861;-81
2022/07/07 00:40:13;;;;;;;0.82;0.82;;;;;;;;;;5077534;28;20291;-82
2022/07/07 00:42:41;;;;;;;0.70;0.70;;;;;;;;;;5077153;28;20224;-81
2022/07/07 00:45:10;;;;;;;0.98;0.88;;;;;;;;;;5077118;28;20709;-82
2022/07/07 00:47:40;;;;;;;0.85;0.85;;;;;;;;;;5078086;28;20232;-82
2022/07/07 00:50:09;;;;;;;0.88;0.88;;;;;;;;;;5077643;28;20189;-81
2022/07/07 00:52:36;;;;;;;0.88;0.88;;;;;;;;;;5077943;28;20223;-82
2022/07/07 00:55:08;;;;;;;0.98;0.98;;;;;;;;;;5076994;28;20472;-82
2022/07/07 00:57:36;;;;;;;0.75;0.75;;;;;;;;;;5077757;28;20194;-81
2022/07/07 01:00:07;;;;;;;0.60;0.60;;;;;;;;;;5077496;28;20641;-81
2022/07/07 01:02:34;;;;;;;0.80;0.80;;;;;;;;;;5077546;28;20190;-81
2022/07/07 01:05:07;;;;;;;1.30;1.20;;;;;;;;;;5077026;28;20213;-82
2022/07/07 01:07:35;;;;;;;0.77;0.77;;;;;;;;;;5077396;28;20181;-83
2022/07/07 01:10:03;;;;;;;0.93;0.93;;;;;;;;;;5076940;28;20240;-82
2022/07/07 01:12:35;;;;;;;0.88;0.88;;;;;;;;;;5076654;28;20240;-82
2022/07/07 01:15:03;;;;;;;1.10;0.98;;;;;;;;;;5077107;28;20237;-81
2022/07/07 01:17:31;;;;;;;0.70;0.70;;;;;;;;;;5077225;28;20601;-83
2022/07/07 01:19:59;;;;;;;1.10;1.10;;;;;;;;;;5076009;28;20232;-82
2022/07/07 01:22:32;;;;;;;1.00;1.00;;;;;;;;;;5076512;28;20236;-82
2022/07/07 01:25:01;;;;;;;1.52;1.13;;;;;;;;;;5077215;28;20235;-83
2022/07/07 01:27:29;;;;;;;1.48;1.38;;;;;;;;;;5076248;28;20224;-83
2022/07/07 01:29:58;;;;;;;1.13;1.13;;;;;;;;;;5076515;28;20232;-83
2022/07/07 01:32:27;;;;;;;1.27;1.17;;;;;;;;;;5076478;28;20232;-82
2022/07/07 01:34:55;;;;;;;1.10;1.10;;;;;;;;;;5075584;28;20232;-83
2022/07/07 01:37:24;;;;;;;1.50;1.15;;;;;;;;;;5076225;28;20618;-82
2022/07/07 01:39:53;;;;;;;0.98;0.98;;;;;;;;;;5076326;28;20204;-82
2022/07/07 01:42:22;;;;;;;1.17;1.10;;;;;;;;;;5076223;28;20677;-82
2022/07/07 01:44:51;;;;;;;0.95;0.93;;;;;;;;;;5076217;28;20280;-82
2022/07/07 01:47:20;;;;;;;2.15;1.20;;;;;;;;;;5076320;28;20280;-82
2022/07/07 01:49:47;;;;;;;0.93;0.80;;;;;;;;;;5075909;28;20207;-82
2022/07/07 01:52:15;;;;;;;0.90;0.90;;;;;;;;;;5076166;28;20228;-82
2022/07/07 01:54:43;;;;;;;0.95;0.95;;;;;;;;;;5075922;28;20240;-81
2022/07/07 01:57:11;;;;;;;0.82;0.82;;;;;;;;;;5076424;28;20272;-82
2022/07/07 01:59:41;;;;;;;0.60;0.60;;;;;;;;;;5076669;28;20224;-82
2022/07/07 02:02:08;;;;;;;2.25;1.30;;;;;;;;;;5075821;28;20210;-83
2022/07/07 02:04:36;;;;;;;2.40;1.40;;;;;;;;;;5076358;28;20662;-81
2022/07/07 02:07:04;;;;;;;1.80;1.70;;;;;;;;;;5076374;28;20321;-82
2022/07/07 02:09:32;;;;;;;1.50;1.40;;;;;;;;;;5076820;28;20197;-81
2022/07/07 02:11:59;;;;;;;1.02;0.98;;;;;;;;;;5075370;28;20236;-82
2022/07/07 02:14:27;;;;;;;0.90;0.90;;;;;;;;;;5076667;28;20204;-81
2022/07/07 02:16:56;;;;;;;0.93;0.90;;;;;;;;;;5076781;28;20231;-82
2022/07/07 02:19:24;;;;;;;1.23;1.10;;;;;;;;;;5077341;28;20236;-84
2022/07/07 02:21:51;;;;;;;1.02;1.02;;;;;;;;;;5076966;28;20231;-82
2022/07/07 02:24:18;;;;;;;0.90;0.90;;;;;;;;;;5077073;28;20308;-82
2022/07/07 02:26:46;;;;;;;0.85;0.85;;;;;;;;;;5075795;28;20263;-82
2022/07/07 02:29:14;;;;;;;0.77;0.77;;;;;;;;;;5075903;28;20244;-84
2022/07/07 02:31:41;;;;;;;0.90;0.90;;;;;;;;;;5075893;28;20258;-84
2022/07/07 02:34:10;;;;;;;0.90;0.90;;;;;;;;;;5075864;28;20239;-82
2022/07/07 02:36:38;;;;;;;1.05;1.05;;;;;;;;;;5076031;28;20263;-83
2022/07/07 02:39:05;;;;;;;0.98;0.98;;;;;;;;;;5076451;28;20625;-84
2022/07/07 02:41:33;;;;;;;0.90;0.90;;;;;;;;;;5075037;28;20224;-84
2022/07/07 02:44:00;;;;;;;0.80;0.80;;;;;;;;;;5076184;28;20616;-83
2022/07/07 02:46:29;;;;;;;1.50;1.25;;;;;;;;;;5075611;28;20332;-84
2022/07/07 02:48:57;;;;;;;1.70;1.30;;;;;;;;;;5076013;28;20301;-84
2022/07/07 02:51:26;;;;;;;0.88;0.88;;;;;;;;;;5075650;28;20209;-83
2022/07/07 02:53:54;;;;;;;0.98;0.98;;;;;;;;;;5075520;28;20247;-84
2022/07/07 02:56:21;;;;;;;3.38;1.30;;;;;;;;;;5075137;28;20213;-82
2022/07/07 02:58:49;;;;;;;1.35;1.25;;;;;;;;;;5074473;28;20228;-82
2022/07/07 03:01:16;;;;;;;1.00;1.00;;;;;;;;;;5075284;28;20232;-81
2022/07/07 03:03:44;;;;;;;1.30;1.20;;;;;;;;;;5076022;28;20619;-83
2022/07/07 03:06:12;;;;;;;1.00;1.00;;;;;;;;;;5076741;28;20227;-83
2022/07/07 03:08:41;;;;;;;1.33;1.23;;;;;;;;;;5079776;28;20239;-83
2022/07/07 03:11:08;;;;;;;1.88;1.63;;;;;;;;;;5080250;28;20248;-83
2022/07/07 03:13:36;;;;;;;1.70;1.60;;;;;;;;;;5079375;28;20239;-82
2022/07/07 03:16:03;;;;;;;1.45;1.35;;;;;;;;;;5078943;28;20247;-81
2022/07/07 03:18:31;;;;;;;2.70;1.40;;;;;;;;;;5080358;28;20233;-80
2022/07/07 03:20:59;;;;;;;1.80;1.70;;;;;;;;;;5079519;28;20240;-82
2022/07/07 03:23:26;;;;;;;1.50;1.30;;;;;;;;;;5080873;28;20228;-81
2022/07/07 03:25:55;;;;;;;1.67;1.58;;;;;;;;;;5080563;28;20225;-80
2022/07/07 03:28:23;;;;;;;2.47;1.55;;;;;;;;;;5080580;28;20255;-83
2022/07/07 03:30:50;;;;;;;2.00;1.75;;;;;;;;;;5079907;28;20696;-83
2022/07/07 03:33:18;;;;;;;1.90;1.67;;;;;;;;;;5080415;28;20197;-83
2022/07/07 03:35:45;;;;;;;1.67;1.58;;;;;;;;;;5079983;28;20300;-82
2022/07/07 03:38:13;;;;;;;1.80;1.70;;;;;;;;;;5080462;28;20618;-82
2022/07/07 03:40:40;;;;;;;1.67;1.58;;;;;;;;;;5080351;28;20201;-83
2022/07/07 03:43:09;;;;;;;1.20;1.20;;;;;;;;;;5079556;28;20228;-83
2022/07/07 03:45:36;;;;;;;1.70;1.60;;;;;;;;;;5079196;28;20306;-84
2022/07/07 03:48:04;;;;;;;1.42;1.33;;;;;;;;;;5079810;28;20656;-83
2022/07/07 03:50:32;;;;;;;1.40;1.30;;;;;;;;;;5079697;28;20205;-82
2022/07/07 03:52:59;;;;;;;1.92;1.83;;;;;;;;;;5079507;28;20229;-83
2022/07/07 03:55:27;;;;;;;1.65;1.55;;;;;;;;;;5080082;28;20217;-83
2022/07/07 03:57:55;;;;;;;1.20;1.20;;;;;;;;;;5079733;28;20209;-83
2022/07/07 04:00:24;;;;;;;1.38;1.30;;;;;;;;;;5079905;28;20572;-83
2022/07/07 04:02:51;;;;;;;1.30;1.20;;;;;;;;;;5079544;28;20235;-83
2022/07/07 04:05:19;;;;;;;1.10;1.10;;;;;;;;;;5079065;28;20257;-82
2022/07/07 04:07:47;;;;;;;1.30;1.20;;;;;;;;;;5079099;28;20737;-81
2022/07/07 04:10:15;;;;;;;1.55;1.45;;;;;;;;;;5079412;28;20228;-82
2022/07/07 04:12:42;;;;;;;1.90;1.80;;;;;;;;;;5079138;28;20205;-82
2022/07/07 04:15:11;;;;;;;1.33;1.20;;;;;;;;;;5079554;28;20655;-82
2022/07/07 04:17:40;;;;;;;1.73;1.63;;;;;;;;;;5079299;28;20177;-82
2022/07/07 04:20:09;;;;;;;1.70;1.60;;;;;;;;;;5079309;28;20239;-82
2022/07/07 04:22:36;;;;;;;1.08;0.98;;;;;;;;;;5078328;28;20692;-81
2022/07/07 04:25:04;;;;;;;1.42;1.33;;;;;;;;;;5077825;28;20645;-82
2022/07/07 04:27:32;;;;;;;1.40;1.30;;;;;;;;;;5077935;28;20663;-81
2022/07/07 04:29:59;;;;;;;1.58;1.48;;;;;;;;;;5077787;28;20284;-82
2022/07/07 04:32:27;;;;;;;1.77;1.38;;;;;;;;;;5077326;28;20239;-80
2022/07/07 04:34:55;;;;;;;1.70;1.60;;;;;;;;;;5077744;28;20237;-81
2022/07/07 04:37:23;;;;;;;1.55;1.45;;;;;;;;;;5077693;28;20288;-81
2022/07/07 04:39:50;;;;;;;1.40;1.27;;;;;;;;;;5077917;28;20534;-80
2022/07/07 04:42:18;;;;;;;1.13;1.13;;;;;;;;;;5079818;28;20685;-80
2022/07/07 04:44:45;;;;;;;1.45;1.35;;;;;;;;;;5098560;28;20227;-81
2022/07/07 04:47:13;;;;;;;1.10;1.10;;;;;;;;;;5098084;28;20207;-79
2022/07/07 04:49:41;;;;;;;1.42;1.33;;;;;;;;;;5097880;28;20334;-80
2022/07/07 04:52:10;;;;;;;1.55;1.45;;;;;;;;;;5097361;28;20246;-79
2022/07/07 04:54:38;;;;;;;1.42;1.30;;;;;;;;;;5097316;28;20239;-80
2022/07/07 04:57:06;;;;;;;1.27;1.17;;;;;;;;;;5096607;28;20228;-81
2022/07/07 04:59:33;;;;;;;1.50;1.40;;;;;;;;;;5096871;28;20231;-81
2022/07/07 05:02:01;;;;;;;1.92;1.73;;;;;;;;;;5096638;28;20610;-82
2022/07/07 05:04:29;;;;;;;2.00;1.40;;;;;;;;;;5096068;28;20231;-82
2022/07/07 05:06:56;;;;;;;1.48;1.38;;;;;;;;;;5096677;28;20256;-82
2022/07/07 05:09:25;;;;;;;2.38;1.65;;;;;;;;;;5096469;28;20303;-82
2022/07/07 05:11:53;;;;;;;1.50;1.42;;;;;;;;;;5096569;28;20243;-81
2022/07/07 05:14:20;;;;;;;3.40;2.25;;;;;;;;;;5096061;28;20228;-82
2022/07/07 05:16:48;;;;;;;1.60;1.50;;;;;;;;;;5095712;28;20232;-79
2022/07/07 05:19:16;;;;;;;1.83;1.52;;;;;;;;;;5096090;28;20224;-82
2022/07/07 05:21:43;;;;;;;1.67;1.58;;;;;;;;;;5097597;28;20204;-82
2022/07/07 05:24:11;;;;;;;1.58;1.42;;;;;;;;;;5097195;28;20292;-82
2022/07/07 05:26:40;;;;;;;1.27;1.27;;;;;;;;;;5096859;28;20310;-82
2022/07/07 05:29:07;;;;;;;1.55;1.45;;;;;;;;;;5096764;28;20255;-82
2022/07/07 05:31:35;;;;;;;1.23;1.20;;;;;;;;;;5096605;28;20238;-81
2022/07/07 05:34:03;;;;;;;1.20;1.20;;;;;;;;;;5096131;28;20255;-79
2022/07/07 05:36:30;;;;;;;1.73;1.63;;;;;;;;;;5096881;28;20674;-80
2022/07/07 05:38:58;;;;;;;1.58;1.48;;;;;;;;;;5083299;28;20196;-81
2022/07/07 05:41:25;;;;;;;2.15;2.05;;;;;;;;;;5076957;28;20283;-82
2022/07/07 05:43:54;;;;;;;2.22;2.03;;;;;;;;;;5076655;28;20627;-80
2022/07/07 05:46:22;;;;;;;1.45;1.35;;;;;;;;;;5077099;28;20259;-80
2022/07/07 05:48:50;;;;;;;3.53;1.77;;;;;;;;;;5077141;28;20671;-80
2022/07/07 05:51:17;;;;;;;1.65;1.55;;;;;;;;;;5077455;28;20201;-81
2022/07/07 05:53:45;;;;;;;1.50;1.40;;;;;;;;;;5077070;28;20312;-81
2022/07/07 05:56:12;;;;;;;1.80;1.70;;;;;;;;;;5077378;28;20241;-80
2022/07/07 05:58:40;;;;;;;1.58;1.48;;;;;;;;;;5076793;28;20220;-82
2022/07/07 06:01:09;;;;;;;1.60;1.50;;;;;;;;;;5077407;28;20204;-82
2022/07/07 06:03:36;;;;;;;1.55;1.45;;;;;;;;;;5077151;28;20228;-81
2022/07/07 06:06:05;;;;;;;1.70;1.60;;;;;;;;;;5074638;28;20264;-81
2022/07/07 06:08:32;;;;;;;1.75;1.55;;;;;;;;;;5074587;28;20285;-82
2022/07/07 06:11:00;;;;;;;3.17;1.80;;;;;;;;;;5076313;28;20205;-82
2022/07/07 06:13:27;;;;;;;1.40;1.30;;;;;;;;;;5075691;28;20225;-82
2022/07/07 06:15:56;;;;;;;1.65;1.55;;;;;;;;;;5075093;28;20263;-81
2022/07/07 06:18:25;;;;;;;1.77;1.67;;;;;;;;;;5074866;28;20208;-82
2022/07/07 06:20:53;;;;;;;2.03;1.80;;;;;;;;;;5075020;28;20477;-80
2022/07/07 06:23:21;;;;;;;3.05;1.80;;;;;;;;;;5072884;28;20692;-79
2022/07/07 06:25:48;;;;;;;1.65;1.55;;;;;;;;;;5074226;28;20256;-82
2022/07/07 06:28:16;;;;;;;1.17;1.10;;;;;;;;;;5073651;28;20229;-79
2022/07/07 06:30:43;;;;;;;1.48;1.38;;;;;;;;;;5073247;28;20228;-79
2022/07/07 06:33:11;;;;;;;1.40;1.20;;;;;;;;;;5073593;28;20661;-79
2022/07/07 06:35:40;;;;;;;1.70;1.60;;;;;;;;;;5073617;28;20358;-80
2022/07/07 06:38:07;;;;;;;1.50;1.40;;;;;;;;;;5074374;28;20255;-79
2022/07/07 06:40:35;;;;;;;2.22;2.05;;;;;;;;;;5073515;28;20232;-80
2022/07/07 06:43:03;;;;;;;1.50;1.40;;;;;;;;;;5077639;28;20236;-80
2022/07/07 06:45:30;;;;;;;1.60;1.50;;;;;;;;;;5078074;28;20256;-80
2022/07/07 06:47:58;;;;;;;2.08;1.88;;;;;;;;;;5078248;28;20246;-80
2022/07/07 06:50:25;;;;;;;2.63;1.60;;;;;;;;;;5077651;28;20263;-80
2022/07/07 06:52:54;;;;;;;1.98;1.88;;;;;;;;;;5077871;28;20201;-80
2022/07/07 06:55:22;;;;;;;1.73;1.58;;;;;;;;;;5077884;28;20217;-79
2022/07/07 06:57:49;;;;;;;1.80;1.70;;;;;;;;;;5077842;28;20236;-79
2022/07/07 07:00:17;;;;;;;2.35;2.15;;;;;;;;;;5077099;28;20697;-82
2022/07/07 07:02:46;;;;;;;1.42;1.40;;;;;;;;;;5078233;28;20232;-82
2022/07/07 07:05:14;;;;;;;1.60;1.50;;;;;;;;;;5077246;28;20225;-82
2022/07/07 07:07:42;;;;;;;1.60;1.50;;;;;;;;;;5077473;28;20232;-82
2022/07/07 07:10:11;;;;;;;1.63;1.50;;;;;;;;;;5077041;28;20311;-82
2022/07/07 07:12:39;;;;;;;2.10;2.00;;;;;;;;;;5077439;28;20231;-80
2022/07/07 07:15:08;;;;;;;1.60;1.50;;;;;;;;;;5076661;28;20224;-80
2022/07/07 07:17:36;;;;;;;1.50;1.40;;;;;;;;;;5077053;28;20193;-80
2022/07/07 07:20:05;;;;;;;1.30;1.20;;;;;;;;;;5076561;28;20254;-82
2022/07/07 07:22:37;;;;;;;1.50;1.40;;;;;;;;;;5076756;28;20213;-80
2022/07/07 07:25:05;;;;;;;2.53;1.98;;;;;;;;;;5076340;28;20231;-81
2022/07/07 07:27:35;;;;;;;1.80;1.70;;;;;;;;;;5076218;28;20207;-81
2022/07/07 07:30:04;;;;;;;1.80;1.70;;;;;;;;;;5076566;28;20244;-81
2022/07/07 07:32:31;;;;;;;1.58;1.48;;;;;;;;;;5076383;28;20240;-81
2022/07/07 07:34:59;;;;;;;1.67;1.58;;;;;;;;;;5076745;28;20644;-78
2022/07/07 07:37:26;;;;;;;2.30;2.10;;;;;;;;;;5076405;28;20228;-79
2022/07/07 07:39:54;;;;;;;2.40;2.17;;;;;;;;;;5076294;28;20646;-79
2022/07/07 07:42:21;;;;;;;1.30;1.30;;;;;;;;;;5075439;28;20650;-79
2022/07/07 07:47:34;;;;;;;1.50;1.40;;;;;;;;;;5065017;28;20197;-80
2022/07/07 07:50:01;;;;;;;1.92;1.50;;;;;;;;;;5075776;28;20308;-79
2022/07/07 07:52:29;;;;;;;1.38;1.33;;;;;;;;;;5074884;28;20243;-79
2022/07/07 07:54:57;;;;;;;1.83;1.73;;;;;;;;;;5075655;28;20607;-80
2022/07/07 07:57:24;;;;;;;1.73;1.63;;;;;;;;;;5075969;28;20228;-80
2022/07/07 07:59:53;;;;;;;2.10;2.00;;;;;;;;;;5075727;28;20197;-78
2022/07/07 08:02:21;;;;;;;1.30;1.30;;;;;;;;;;5075670;28;20300;-81
2022/07/07 08:04:48;;;;;;;2.10;2.00;;;;;;;;;;5076032;28;20669;-80
2022/07/07 08:07:16;;;;;;;1.35;1.25;;;;;;;;;;5075440;28;20236;-80
2022/07/07 08:09:43;;;;;;;1.50;1.40;;;;;;;;;;5075315;28;20727;-80
2022/07/07 08:12:11;;;;;;;1.30;1.20;;;;;;;;;;5075059;28;20243;-79
2022/07/07 08:14:39;;;;;;;1.02;1.02;;;;;;;;;;5073755;28;20207;-81
2022/07/07 08:17:08;;;;;;;1.50;1.40;;;;;;;;;;5074850;28;20299;-81
2022/07/07 08:19:36;;;;;;;1.10;1.10;;;;;;;;;;5074805;28;20209;-80
2022/07/07 08:22:04;;;;;;;1.10;1.10;;;;;;;;;;5075080;28;20239;-81
2022/07/07 08:24:31;;;;;;;1.20;1.10;;;;;;;;;;5075623;28;20228;-80
2022/07/07 08:26:59;;;;;;;1.15;1.15;;;;;;;;;;5074421;28;20256;-79
2022/07/07 08:29:26;;;;;;;1.10;1.10;;;;;;;;;;5074735;28;20297;-80
2022/07/07 08:31:54;;;;;;;0.90;0.90;;;;;;;;;;5074716;28;20236;-79
2022/07/07 08:34:23;;;;;;;1.17;1.17;;;;;;;;;;5074517;28;20240;-81
2022/07/07 08:36:52;;;;;;;1.23;1.13;;;;;;;;;;5074510;28;20709;-79
2022/07/07 08:39:19;;;;;;;1.92;1.50;;;;;;;;;;5074827;28;20201;-80
2022/07/07 08:41:47;;;;;;;1.00;1.00;;;;;;;;;;5074291;28;20235;-80
2022/07/07 08:44:14;;;;;;;0.95;0.95;;;;;;;;;;5074676;28;20708;-81
2022/07/07 08:46:43;;;;;;;1.33;1.23;;;;;;;;;;5074322;28;20264;-81
2022/07/07 08:49:10;;;;;;;1.77;1.08;;;;;;;;;;5074794;28;20228;-81
2022/07/07 08:51:42;;;;;;;0.95;0.95;;;;;;;;;;5093359;28;20220;-78
2022/07/07 08:54:10;;;;;;;1.05;0.82;;;;;;;;;;5095226;28;20227;-79
2022/07/07 08:56:38;;;;;;;1.08;0.93;;;;;;;;;;5094842;28;20255;-79
2022/07/07 08:59:07;;;;;;;0.80;0.80;;;;;;;;;;5094466;28;20653;-81
2022/07/07 09:01:35;;;;;;;0.80;0.80;;;;;;;;;;5095976;28;20228;-80
2022/07/07 09:04:04;;;;;;;0.60;0.60;;;;;;;;;;5094938;28;20235;-79
2022/07/07 09:06:32;;;;;;;0.80;0.80;;;;;;;;;;5095522;28;20251;-80
2022/07/07 09:09:03;;;;;;;1.00;1.00;;;;;;;;;;5095586;28;20207;-80
2022/07/07 09:11:33;;;;;;;0.80;0.80;;;;;;;;;;5095736;28;20205;-82
2022/07/07 09:14:11;;;;;;;2.97;1.13;;;;;;;;;;5096161;28;20212;-82
2022/07/07 09:16:39;;;;;;;0.85;0.80;;;;;;;;;;5096095;28;20742;-79
2022/07/07 09:19:10;;;;;;;1.20;1.10;;;;;;;;;;5095531;28;20200;-83
2022/07/07 09:21:37;;;;;;;0.60;0.60;;;;;;;;;;5075380;28;20654;-80
2022/07/07 09:24:07;;;;;;;0.73;0.73;;;;;;;;;;5074556;28;20207;-80
2022/07/07 09:26:37;;;;;;;0.70;0.70;;;;;;;;;;5073905;28;20217;-79
2022/07/07 09:29:05;;;;;;;0.75;0.70;;;;;;;;;;5074326;28;20212;-81
2022/07/07 09:31:55;;;;;;;2.67;0.80;;;;;;;;;;5073841;28;20232;-81
2022/07/07 09:34:24;;;;;;;0.60;0.60;;;;;;;;;;5074099;28;20196;-80
2022/07/07 09:39:45;;;;;;;0.70;0.70;;;;;;;;;;5073974;28;20494;-80
2022/07/07 09:42:20;;;;;;;0.95;0.95;;;;;;;;;;5073793;28;20401;-80
2022/07/07 09:44:54;;;;;;;0.30;0.30;;;;;;;;;;5073834;28;20228;-80
2022/07/07 09:47:23;;;;;;;0.63;0.63;;;;;;;;;;5073990;28;20188;-79
2022/07/07 09:50:02;;;;;;;0.60;0.60;;;;;;;;;;5073655;28;20232;-79
2022/07/07 09:52:31;;;;;;;0.40;0.40;;;;;;;;;;5073431;28;20215;-79
2022/07/07 09:55:01;;;;;;;0.80;0.80;;;;;;;;;;5073648;28;20249;-79
2022/07/07 09:57:28;;;;;;;0.90;0.90;;;;;;;;;;5073870;28;20643;-79
2022/07/07 09:59:56;;;;;;;0.70;0.70;;;;;;;;;;5073686;28;20248;-81
2022/07/07 10:02:25;;;;;;;0.60;0.60;;;;;;;;;;5074720;28;20231;-81
2022/07/07 10:04:55;;;;;;;0.70;0.70;;;;;;;;;;5073738;28;20205;-80
2022/07/07 10:07:25;;;;;;;0.90;0.90;;;;;;;;;;5073216;28;20708;-78
2022/07/07 10:09:55;;;;;;;0.70;0.70;;;;;;;;;;5073187;28;20225;-79
2022/07/07 10:12:26;;;;;;;0.80;0.80;;;;;;;;;;5072844;28;20263;-79
2022/07/07 10:14:58;;;;;;;1.23;1.23;;;;;;;;;;5072949;28;20246;-80
2022/07/07 10:17:27;;;;;;;1.00;1.00;;;;;;;;;;5072812;28;20192;-81
2022/07/07 10:19:55;;;;;;;0.80;0.80;;;;;;;;;;5077659;28;20622;-80
2022/07/07 10:22:27;;;;;;;0.80;0.80;;;;;;;;;;5093065;28;20246;-80
2022/07/07 10:24:55;;;;;;;1.23;1.13;;;;;;;;;;5093679;28;20682;-78
2022/07/07 10:27:26;;;;;;;2.00;0.88;;;;;;;;;;5093969;28;20673;-79
2022/07/07 10:29:55;;;;;;;1.08;0.85;;;;;;;;;;5093402;28;20614;-79
2022/07/07 10:32:32;;;;;;;1.15;1.05;;;;;;;;;;5092729;28;20226;-79
2022/07/07 10:35:06;;;;;;;0.90;0.90;;;;;;;;;;5093609;28;20248;-81
2022/07/07 10:37:43;;;;;;;1.05;1.05;;;;;;;;;;5093754;28;20598;-80
2022/07/07 10:40:14;;;;;;;1.08;0.95;;;;;;;;;;5093598;28;20196;-81
2022/07/07 10:42:53;;;;;;;1.40;1.30;;;;;;;;;;5092972;28;20202;-79
2022/07/07 10:45:22;;;;;;;1.00;1.00;;;;;;;;;;5094362;28;20247;-81
2022/07/07 10:47:50;;;;;;;1.00;1.00;;;;;;;;;;5094532;28;20211;-82
2022/07/07 10:50:30;;;;;;;1.00;1.00;;;;;;;;;;5087567;28;20211;-80
2022/07/07 10:52:58;;;;;;;1.00;1.00;;;;;;;;;;5074429;28;20677;-79
2022/07/07 10:55:52;;;;;;;1.10;1.10;;;;;;;;;;5074453;28;20262;-80
2022/07/07 10:58:57;;;;;;;2.05;1.23;;;;;;;;;;5074347;28;20568;-80
2022/07/07 11:01:26;;;;;;;1.20;1.15;;;;;;;;;;5074835;28;20618;-82
2022/07/07 11:03:54;;;;;;;4.45;1.50;;;;;;;;;;5074277;28;20225;-80
2022/07/07 11:06:22;;;;;;;2.05;1.48;;;;;;;;;;5073995;28;20217;-83
2022/07/07 11:08:58;;;;;;;1.52;1.42;;;;;;;;;;5073680;28;20207;-80
2022/07/07 11:11:26;;;;;;;1.35;1.17;;;;;;;;;;5073724;28;20416;-83
2022/07/07 11:14:07;;;;;;;1.08;0.93;;;;;;;;;;5074969;28;20249;-81
2022/07/07 11:16:35;;;;;;;1.13;0.93;;;;;;;;;;5074293;28;20260;-81
2022/07/07 11:19:04;;;;;;;1.60;1.15;;;;;;;;;;5074725;28;20208;-83
2022/07/07 11:21:37;;;;;;;1.17;1.10;;;;;;;;;;5074671;28;20232;-81
2022/07/07 11:24:19;;;;;;;2.45;1.63;;;;;;;;;;5074136;28;20217;-81
2022/07/07 11:26:59;;;;;;;1.23;1.23;;;;;;;;;;5074627;28;20724;-81
2022/07/07 11:29:29;;;;;;;2.88;2.05;;;;;;;;;;5076631;28;20189;-83
2022/07/07 11:32:07;;;;;;;2.05;1.58;;;;;;;;;;5077788;28;20653;-81
2022/07/07 11:34:46;;;;;;;1.40;1.30;;;;;;;;;;5077910;28;20193;-81
2022/07/07 11:37:23;;;;;;;1.45;1.35;;;;;;;;;;5077990;28;20185;-81
2022/07/07 11:39:50;;;;;;;1.20;1.10;;;;;;;;;;5077738;28;20208;-80
2022/07/07 11:42:18;;;;;;;0.80;0.80;;;;;;;;;;5077587;28;20546;-82
2022/07/07 11:44:48;;;;;;;1.05;1.05;;;;;;;;;;5076747;28;20201;-82
2022/07/07 11:47:16;;;;;;;1.00;1.00;;;;;;;;;;5076958;28;20243;-82
2022/07/07 11:49:43;;;;;;;1.40;1.30;;;;;;;;;;5077829;28;20228;-80
2022/07/07 11:52:15;;;;;;;0.80;0.80;;;;;;;;;;5076786;28;20328;-80
2022/07/07 11:54:48;;;;;;;1.00;1.00;;;;;;;;;;5077296;28;20185;-82
2022/07/07 11:57:30;;;;;;;1.33;0.88;;;;;;;;;;5077576;28;20659;-81
2022/07/07 12:00:12;;;;;;;1.55;1.10;;;;;;;;;;5077346;28;20204;-82
2022/07/07 12:02:40;;;;;;;1.50;1.40;;;;;;;;;;5077194;28;20611;-82
2022/07/07 12:05:09;;;;;;;0.90;0.90;;;;;;;;;;5076718;28;20740;-81
2022/07/07 12:07:37;;;;;;;1.38;1.10;;;;;;;;;;5077001;28;20228;-82
2022/07/07 12:10:05;;;;;;;4.10;1.38;;;;;;;;;;5077013;28;20196;-82
2022/07/07 12:12:33;;;;;;;1.25;1.20;;;;;;;;;;5077003;28;20247;-83
2022/07/07 12:15:00;;;;;;;2.00;1.40;;;;;;;;;;5076919;28;20252;-80
2022/07/07 12:17:36;;;;;;;3.60;1.00;;;;;;;;;;5076214;28;20594;-80
2022/07/07 12:20:05;;;;;;;0.70;0.70;;;;;;;;;;5076822;28;20662;-79
2022/07/07 12:22:34;;;;;;;1.58;0.85;;;;;;;;;;5078583;28;20197;-82
2022/07/07 12:25:03;;;;;;;1.38;0.90;;;;;;;;;;5079280;28;20221;-82
2022/07/07 12:27:30;;;;;;;1.23;1.15;;;;;;;;;;5078544;28;20608;-81
2022/07/07 12:30:01;;;;;;;1.05;1.05;;;;;;;;;;5078751;28;20200;-81
2022/07/07 12:32:29;;;;;;;1.80;1.00;;;;;;;;;;5078218;28;20354;-82
2022/07/07 12:34:58;;;;;;;1.23;1.10;;;;;;;;;;5084291;28;20228;-82
2022/07/07 12:37:42;;;;;;;1.10;1.00;;;;;;;;;;5098669;28;20232;-82
2022/07/07 12:40:13;;;;;;;0.70;0.70;;;;;;;;;;5098810;28;20184;-83
2022/07/07 12:42:45;;;;;;;1.00;1.00;;;;;;;;;;5098571;28;20310;-83
2022/07/07 12:45:15;;;;;;;0.90;0.90;;;;;;;;;;5098671;28;20220;-82
2022/07/07 12:47:47;;;;;;;2.70;1.15;;;;;;;;;;5097994;28;20287;-81
2022/07/07 12:50:16;;;;;;;1.40;1.08;;;;;;;;;;5098381;28;20688;-82
2022/07/07 12:52:56;;;;;;;1.80;1.65;;;;;;;;;;5098744;28;20251;-82
2022/07/07 12:55:24;;;;;;;1.00;1.00;;;;;;;;;;5098852;28;20224;-83
2022/07/07 12:57:51;;;;;;;0.95;0.95;;;;;;;;;;5098384;28;20242;-82
2022/07/07 13:00:26;;;;;;;1.95;1.00;;;;;;;;;;5098354;28;20253;-81
2022/07/07 13:02:53;;;;;;;4.50;1.17;;;;;;;;;;5097835;28;20231;-83
2022/07/07 13:05:22;;;;;;;1.63;1.20;;;;;;;;;;5099118;28;20287;-80
2022/07/07 13:07:50;;;;;;;0.90;0.90;;;;;;;;;;5098162;28;20238;-82
2022/07/07 13:10:17;;;;;;;1.48;0.90;;;;;;;;;;5098120;28;20235;-83
2022/07/07 13:12:47;;;;;;;0.88;0.88;;;;;;;;;;5097303;28;20284;-82
2022/07/07 13:15:15;;;;;;;1.65;1.20;;;;;;;;;;5097897;28;20246;-83
2022/07/07 13:17:44;;;;;;;1.73;0.82;;;;;;;;;;5097645;28;20280;-81
2022/07/07 13:20:12;;;;;;;4.28;1.30;;;;;;;;;;5098073;28;20624;-83
2022/07/07 13:22:42;;;;;;;0.98;0.65;;;;;;;;;;5096556;28;20283;-83
2022/07/07 13:25:10;;;;;;;1.10;1.00;;;;;;;;;;5095861;28;20232;-81
2022/07/07 13:27:38;;;;;;;1.10;1.00;;;;;;;;;;5096570;28;20249;-83
2022/07/07 13:30:07;;;;;;;1.30;1.20;;;;;;;;;;5095108;28;20231;-80
2022/07/07 13:32:35;;;;;;;0.82;0.82;;;;;;;;;;5096317;28;20204;-83
2022/07/07 13:35:02;;;;;;;1.00;1.00;;;;;;;;;;5096310;28;20255;-82
2022/07/07 13:37:30;;;;;;;0.95;0.80;;;;;;;;;;5095942;28;20207;-82
2022/07/07 13:39:59;;;;;;;1.10;0.63;;;;;;;;;;5095689;28;20204;-79
2022/07/07 13:42:26;;;;;;;2.35;0.90;;;;;;;;;;5095781;28;20227;-81
2022/07/07 13:44:54;;;;;;;1.98;1.00;;;;;;;;;;5095747;28;20224;-81
2022/07/07 13:47:21;;;;;;;1.42;1.33;;;;;;;;;;5095625;28;20623;-80
2022/07/07 13:49:49;;;;;;;0.70;0.68;;;;;;;;;;5095545;28;20288;-82
2022/07/07 13:52:16;;;;;;;0.70;0.70;;;;;;;;;;5094642;28;20283;-80
2022/07/07 13:54:45;;;;;;;0.77;0.77;;;;;;;;;;5095280;28;20712;-80
2022/07/07 13:57:15;;;;;;;1.70;0.90;;;;;;;;;;5095553;28;20248;-81
2022/07/07 13:59:42;;;;;;;0.90;0.90;;;;;;;;;;5095615;28;20204;-80
2022/07/07 14:02:10;;;;;;;2.08;0.80;;;;;;;;;;5096018;28;20235;-80
2022/07/07 14:04:38;;;;;;;1.10;0.85;;;;;;;;;;5096594;28;20326;-81
2022/07/07 14:07:06;;;;;;;0.75;0.75;;;;;;;;;;5095756;28;20204;-82
2022/07/07 14:09:33;;;;;;;0.50;0.50;;;;;;;;;;5095786;28;20204;-82
2022/07/07 14:12:01;;;;;;;0.73;0.70;;;;;;;;;;5096054;28;20228;-81
2022/07/07 14:14:30;;;;;;;0.73;0.50;;;;;;;;;;5095709;28;20255;-80
2022/07/07 14:16:58;;;;;;;0.50;0.50;;;;;;;;;;5094734;28;20267;-80
2022/07/07 14:19:25;;;;;;;0.60;0.60;;;;;;;;;;5094831;28;20624;-80
2022/07/07 14:21:53;;;;;;;0.80;0.80;;;;;;;;;;5095400;28;20235;-80
2022/07/07 14:24:21;;;;;;;0.50;0.50;;;;;;;;;;5095177;28;20638;-79
2022/07/07 14:26:48;;;;;;;0.60;0.60;;;;;;;;;;5093386;28;20694;-80
2022/07/07 14:29:16;;;;;;;0.38;0.38;;;;;;;;;;5095319;28;20686;-83
2022/07/07 14:31:45;;;;;;;1.25;0.73;;;;;;;;;;5094733;28;20232;-83
2022/07/07 14:34:13;;;;;;;0.70;0.70;;;;;;;;;;5096437;28;20224;-82
2022/07/07 14:36:40;;;;;;;0.70;0.70;;;;;;;;;;5096036;28;20251;-81
2022/07/07 14:39:08;;;;;;;0.68;0.68;;;;;;;;;;5096108;28;20244;-82
2022/07/07 14:41:36;;;;;;;0.60;0.60;;;;;;;;;;5095623;28;20743;-81
2022/07/07 14:44:04;;;;;;;1.95;0.82;;;;;;;;;;5096066;28;20196;-83
2022/07/07 14:46:31;;;;;;;0.60;0.60;;;;;;;;;;5095782;28;20258;-83
2022/07/07 14:49:01;;;;;;;0.50;0.50;;;;;;;;;;5095993;28;20633;-82
2022/07/07 14:51:28;;;;;;;0.55;0.52;;;;;;;;;;5096115;28;20243;-82
2022/07/07 14:53:56;;;;;;;0.52;0.52;;;;;;;;;;5094925;28;20664;-82
2022/07/07 14:56:24;;;;;;;0.52;0.50;;;;;;;;;;5096249;28;20264;-82
2022/07/07 14:58:51;;;;;;;0.50;0.50;;;;;;;;;;5096247;28;20660;-81